METAR Data
IDs: Format: Raw Decoded Include TAF

Data at: 0142 UTC 25 Mar 2019

KRDK 250135Z AUTO 01013KT 6SM BR OVC006 08/08 A3010 RMK AO2
KRDK 250115Z AUTO 01011KT 7SM OVC007 08/08 A3009 RMK AO2
KRDK 250055Z AUTO 01009KT 7SM OVC008 08/08 A3008 RMK AO2
KRDK 250035Z AUTO 01008KT 8SM OVC008 08/08 A3008 RMK AO2
KRDK 250015Z AUTO 01008G13KT 9SM BKN010 OVC019 08/08 A3007 RMK AO2
KRDK 242355Z AUTO 01012KT 9SM BKN008 BKN011 OVC019 08/08 A3007 RMK AO2
KRDK 242335Z AUTO 02010KT 7SM OVC007 08/08 A3006 RMK AO2
KRDK 242315Z AUTO 02010KT 8SM OVC008 08/08 A3005 RMK AO2
KRDK 242255Z AUTO 02009G14KT 6SM BR OVC007 08/08 A3005 RMK AO2 P0001
KRDK 242235Z AUTO 02011KT 3SM BR OVC005 08/08 A3004 RMK AO2
KRDK 242215Z AUTO 02011G17KT 2SM BR OVC004 08/08 A3004 RMK AO2
KRDK 242155Z AUTO 01016KT 1SM -RA BKN005 OVC009 08/08 A3003 RMK AO2 P0001
KRDK 242135Z AUTO 01015KT 3/4SM -RA OVC005 08/08 A3003 RMK AO2
KRDK 242115Z AUTO 36014KT 3/4SM -RA OVC005 09/09 A3002 RMK AO2
KRDK 242055Z AUTO 35015KT 2SM BR BKN006 OVC012 09/09 A3001 RMK AO2
KRDK 242035Z AUTO 36009KT 8SM OVC012 10/10 A3000 RMK AO2
KRDK 242015Z AUTO 36007KT 10SM OVC011 11/10 A3000 RMK AO2
KRDK 241955Z AUTO 01007KT 10SM OVC009 10/10 A2999 RMK AO2
KRDK 241935Z AUTO 01008KT 10SM BKN009 OVC013 10/10 A2999 RMK AO2
KRDK 241915Z AUTO 36008KT 10SM OVC009 10/10 A2998 RMK AO2
KRDK 241855Z AUTO 36008KT 10SM OVC008 10/10 A2998 RMK AO2
KRDK 241835Z AUTO 36007KT 10SM OVC010 10/10 A2998 RMK AO2
KRDK 241815Z AUTO 05006KT 10SM OVC009 10/10 A2998 RMK AO2
KRDK 241755Z AUTO 04004KT 10SM BKN008 OVC013 11/11 A2997 RMK AO2
KRDK 241735Z AUTO 07010KT 9SM BKN008 OVC014 11/11 A2997 RMK AO2
KRDK 241715Z AUTO 07008KT 9SM BKN008 OVC013 10/10 A2996 RMK AO2
KRDK 241655Z AUTO 05008KT 7SM BKN006 OVC009 10/10 A2996 RMK AO2 P0001
KRDK 241635Z AUTO 04007KT 4SM -RA BKN005 BKN010 09/09 A2997 RMK AO2
KRDK 241615Z AUTO 04007KT 3SM -RA FEW004 OVC009 09/09 A2997 RMK AO2
KRDK 241555Z AUTO 03005KT 2 1/2SM -RA BKN007 OVC010 09/09 A2997 RMK AO2 P0002
KRDK 241535Z AUTO 03006KT 4SM BR OVC006 09/09 A2997 RMK AO2
KRDK 241515Z AUTO 04004KT 4SM BR OVC007 09/09 A2996 RMK AO2
KRDK 241455Z AUTO 03004KT 3SM BR OVC008 09/09 A2995 RMK AO2
KRDK 241435Z AUTO 05003KT 3SM BR OVC008 09/09 A2995 RMK AO2
KRDK 241415Z AUTO 04004KT 2SM BR OVC009 09/09 A2995 RMK AO2
KRDK 241355Z AUTO 06005KT 1 1/2SM RA SCT004 OVC009 09/08 A2995 RMK AO2 P0004
KRDK 241335Z AUTO 08004KT 1 1/2SM -RA SCT004 OVC008 09/08 A2994 RMK AO2
KRDK 241315Z AUTO 11004KT 1 1/4SM BR OVC008 09/08 A2994 RMK AO2
KRDK 241255Z AUTO 12005KT 2 1/2SM BR OVC009 09/09 A2993 RMK AO2
KRDK 241235Z AUTO 12005KT 9SM OVC011 09/09 A2993 RMK AO2
KRDK 241215Z AUTO 12003KT 10SM OVC012 09/09 A2993 RMK AO2
KRDK 241155Z AUTO 11004KT 10SM OVC012 09/09 A2993 RMK AO2
KRDK 241135Z AUTO 12007KT 10SM OVC013 09/09 A2993 RMK AO2
KRDK 241115Z AUTO 13005KT 10SM OVC014 09/09 A2993 RMK AO2
KRDK 241055Z AUTO 12008KT 10SM OVC015 09/09 A2993 RMK AO2 P0002
KRDK 241035Z AUTO 12008KT 10SM OVC016 09/09 A2993 RMK AO2
KRDK 241015Z AUTO 12008KT 7SM -RA OVC015 09/09 A2993 RMK AO2
KRDK 240955Z AUTO 14005KT 6SM BR OVC016 09/09 A2993 RMK AO2 P0001
KRDK 240935Z AUTO 14006KT 10SM OVC016 09/09 A2993 RMK AO2
KRDK 240915Z AUTO 14008KT 10SM OVC017 10/10 A2993 RMK AO2
KRDK 240855Z AUTO 14008KT 10SM OVC018 10/10 A2994 RMK AO2
KRDK 240835Z AUTO 15008KT 10SM OVC018 10/10 A2995 RMK AO2
KRDK 240815Z AUTO 15007KT 10SM OVC018 10/10 A2995 RMK AO2
KRDK 240755Z AUTO 15007KT 10SM FEW010 OVC017 10/10 A2996 RMK AO2
KRDK 240735Z AUTO 15009KT 9SM BKN006 BKN011 OVC017 10/10 A2996 RMK AO2
KRDK 240715Z AUTO 15007KT 2SM BR BKN005 OVC009 09/09 A2996 RMK AO2
KRDK 240655Z AUTO 14006G13KT 2 1/2SM BR OVC008 10/10 A2997 RMK AO2
KRDK 240635Z AUTO 13008KT OVC011 10/10 A2997 RMK AO2
KRDK 240615Z AUTO 13008KT 10SM BKN012 OVC017 10/09 A2998 RMK AO2
KRDK 240555Z AUTO 14009KT 10SM OVC018 10/09 A2998 RMK AO2
KRDK 240535Z AUTO 13012KT 10SM OVC020 10/08 A2998 RMK AO2
KRDK 240515Z AUTO 13010KT 10SM OVC023 10/08 A2998 RMK AO2
KRDK 240455Z AUTO 13009KT 10SM OVC024 10/07 A2999 RMK AO2
KRDK 240435Z AUTO 12007KT 10SM OVC024 10/07 A3000 RMK AO2
KRDK 240415Z AUTO 12009KT 10SM OVC025 09/07 A3000 RMK AO2
KRDK 240355Z AUTO 11010KT 10SM OVC026 09/07 A3000 RMK AO2
KRDK 240335Z AUTO 11011KT 10SM OVC027 10/07 A3001 RMK AO2
KRDK 240315Z AUTO 11010KT 10SM OVC027 09/07 A3001 RMK AO2
KRDK 240255Z AUTO 11010G16KT 10SM BKN030 OVC039 09/07 A3001 RMK AO2
KRDK 240235Z AUTO 10009KT 10SM BKN030 OVC036 10/07 A3001 RMK AO2
KRDK 240215Z AUTO 11011KT 10SM OVC034 10/07 A3001 RMK AO2
KRDK 240155Z AUTO 11012G18KT 10SM OVC035 10/07 A3001 RMK AO2
KRDK 240135Z AUTO 10011KT 10SM OVC034 09/07 A3000 RMK AO2
KRDK 240115Z AUTO 09012KT 10SM OVC034 09/07 A3000 RMK AO2
KRDK 240055Z AUTO 09011KT 10SM OVC033 09/08 A3000 RMK AO2
KRDK 240035Z AUTO 09011KT 10SM OVC034 09/08 A3001 RMK AO2
KRDK 240015Z AUTO 08009KT 10SM OVC035 09/08 A3002 RMK AO2
KRDK 232355Z AUTO 08008KT 10SM OVC035 09/08 A3003 RMK AO2
KRDK 232335Z AUTO 09009KT 10SM OVC034 09/09 A3003 RMK AO2
KRDK 232315Z AUTO 10011KT 10SM OVC034 09/08 A3004 RMK AO2
KRDK 232255Z AUTO 10011KT 5SM -RA OVC034 09/09 A3004 RMK AO2 P0004
KRDK 232235Z AUTO 12010KT 4SM -RA OVC034 09/09 A3005 RMK AO2
KRDK 232215Z AUTO 13012KT 2 1/2SM -RA BKN029 OVC035 10/08 A3006 RMK AO2 VIS 1 3/4V4
KRDK 232155Z AUTO 13006KT 2SM -RA BKN031 OVC045 10/07 A3005 RMK AO2
KRDK 232135Z AUTO 11010G16KT 7SM -DZ FEW032 BKN048 OVC055 11/05 A3004 RMK AO2
KRDK 232115Z AUTO 10010KT 10SM BKN050 OVC065 12/04 A3004 RMK AO2
KRDK 232055Z AUTO 11010KT 090V150 10SM FEW039 FEW044 OVC065 12/03 A3005 RMK AO2
KRDK 232035Z AUTO 10009KT 10SM SCT041 BKN060 OVC070 12/03 A3005 RMK AO2
KRDK 232015Z AUTO 12008KT 10SM BKN070 12/03 A3006 RMK AO2
KRDK 231955Z AUTO 12006KT 10SM SCT075 OVC085 12/03 A3006 RMK AO2
KRDK 231935Z AUTO 15010KT 10SM OVC085 12/02 A3008 RMK AO2
KRDK 231915Z AUTO 14012KT 10SM SCT085 BKN100 13/02 A3007 RMK AO2
KRDK 231855Z AUTO 14012G21KT 10SM BKN100 13/03 A3008 RMK AO2
KRDK 231835Z AUTO 12014G19KT 10SM BKN100 13/02 A3008 RMK AO2
KRDK 231815Z AUTO 10014G19KT 10SM OVC100 12/02 A3009 RMK AO2
KRDK 231755Z AUTO 11016KT 10SM OVC100 12/02 A3009 RMK AO2
KRDK 231735Z AUTO 10009G17KT 10SM BKN095 11/02 A3010 RMK AO2
KRDK 231715Z AUTO 09012KT 10SM FEW095 11/02 A3011 RMK AO2
KRDK 231655Z AUTO 10012KT 10SM BKN060 10/02 A3012 RMK AO2
KRDK 231635Z AUTO 13009G17KT 10SM BKN060 BKN110 11/02 A3014 RMK AO2
KRDK 231615Z AUTO 14008KT 10SM FEW043 SCT060 09/02 A3014 RMK AO2
KRDK 231555Z AUTO 12007G13KT 9SM FEW022 SCT035 BKN065 09/02 A3014 RMK AO2
KRDK 231535Z AUTO 14006KT 10SM FEW020 SCT050 BKN060 08/01 A3015 RMK AO2
KRDK 231515Z AUTO 13005G13KT 10SM FEW070 FEW080 08/00 A3014 RMK AO2
KRDK 231455Z AUTO 11007G13KT 10SM CLR 08/00 A3013 RMK AO2
KRDK 231435Z AUTO 11010KT 10SM CLR 07/00 A3013 RMK AO2
KRDK 231415Z AUTO 10SM CLR 07/00 A3013 RMK AO2
KRDK 231355Z AUTO VRB06G13KT 10SM CLR 06/M00 A3014 RMK AO2